createdAt,value
2022-10-14T00:00:12.756Z,10.75
2022-10-14T00:02:41.729Z,11.05
2022-10-14T00:05:11.870Z,11.68
2022-10-14T00:07:41.662Z,10.35
2022-10-14T00:10:08.062Z,11.35
2022-10-14T00:12:38.760Z,10.93
2022-10-14T00:15:06.234Z,10.80
2022-10-14T00:17:32.823Z,10.55
2022-10-14T00:20:08.124Z,10.93
2022-10-14T00:22:34.528Z,11.38
2022-10-14T00:25:00.872Z,10.40
2022-10-14T00:27:27.295Z,11.85
2022-10-14T00:29:53.632Z,10.80
2022-10-14T00:32:19.974Z,10.65
2022-10-14T00:34:46.327Z,10.73
2022-10-14T00:37:12.625Z,11.25
2022-10-14T00:39:39.012Z,10.45
2022-10-14T00:42:05.349Z,11.35
2022-10-14T00:44:31.754Z,11.80
2022-10-14T00:47:00.487Z,11.35
2022-10-14T00:49:29.478Z,9.90
2022-10-14T00:51:58.496Z,10.35
2022-10-14T00:54:29.166Z,10.75
2022-10-14T00:56:55.620Z,11.48
2022-10-14T00:59:22.118Z,11.02
2022-10-14T01:01:48.598Z,12.38
2022-10-14T01:04:14.954Z,10.82
2022-10-14T01:06:46.269Z,11.63
2022-10-14T01:09:20.796Z,11.85
2022-10-14T01:12:16.310Z,11.55
2022-10-14T01:14:59.776Z,12.75
2022-10-14T01:17:26.188Z,12.68
2022-10-14T01:19:52.520Z,12.13
2022-10-14T01:22:22.156Z,12.88
2022-10-14T01:25:01.041Z,12.90
2022-10-14T01:27:30.497Z,12.95
2022-10-14T01:30:04.454Z,12.88
2022-10-14T01:32:41.701Z,13.38
2022-10-14T01:35:23.541Z,13.02
2022-10-14T01:37:55.847Z,12.90
2022-10-14T01:40:45.413Z,13.70
2022-10-14T01:43:13.388Z,13.55
2022-10-14T01:45:41.965Z,14.20
2022-10-14T01:48:10.873Z,13.95
2022-10-14T01:50:38.869Z,13.73
2022-10-14T01:53:07.936Z,13.25
2022-10-14T01:55:36.428Z,13.40
2022-10-14T01:58:03.347Z,13.32
2022-10-14T02:00:29.721Z,13.88
2022-10-14T02:02:56.024Z,14.90
2022-10-14T02:05:22.411Z,16.08
2022-10-14T02:07:51.702Z,17.27
2022-10-14T02:10:24.454Z,15.95
2022-10-14T02:13:09.670Z,15.13
2022-10-14T02:15:50.470Z,15.23
2022-10-14T02:18:35.716Z,15.77
2022-10-14T02:21:17.236Z,16.20
2022-10-14T02:23:45.797Z,13.93
2022-10-14T02:26:12.851Z,13.80
2022-10-14T02:28:40.799Z,13.73
2022-10-14T02:31:10.437Z,14.65
2022-10-14T02:33:40.022Z,14.48
2022-10-14T02:36:07.524Z,13.73
2022-10-14T02:38:34.256Z,15.18
2022-10-14T02:41:01.744Z,14.00
2022-10-14T02:43:28.037Z,13.93
2022-10-14T02:45:57.265Z,14.18
2022-10-14T02:48:23.639Z,13.75
2022-10-14T02:50:50.003Z,13.68
2022-10-14T02:53:17.072Z,14.45
2022-10-14T02:55:43.418Z,13.23
2022-10-14T02:58:09.891Z,13.43
2022-10-14T03:00:36.421Z,13.70
2022-10-14T03:03:02.779Z,12.77
2022-10-14T03:05:29.081Z,12.02
2022-10-14T03:07:55.515Z,13.20
2022-10-14T03:10:21.846Z,13.05
2022-10-14T03:12:48.241Z,12.50
2022-10-14T03:15:14.641Z,12.98
2022-10-14T03:17:40.983Z,13.32
2022-10-14T03:20:07.623Z,12.27
2022-10-14T03:22:34.037Z,12.25
2022-10-14T03:25:00.421Z,12.23
2022-10-14T03:27:26.805Z,11.20
2022-10-14T03:29:53.295Z,11.32
2022-10-14T03:32:19.957Z,11.75
2022-10-14T03:34:46.401Z,10.90
2022-10-14T03:37:12.952Z,10.80
2022-10-14T03:39:39.649Z,11.18
2022-10-14T03:42:06.150Z,11.95
2022-10-14T03:44:32.495Z,11.40
2022-10-14T03:46:58.853Z,11.80
2022-10-14T03:49:25.314Z,11.80
2022-10-14T03:51:51.748Z,11.32
2022-10-14T03:54:18.058Z,11.00
2022-10-14T03:56:44.407Z,12.10
2022-10-14T03:59:10.768Z,11.40
2022-10-14T04:01:37.183Z,12.05
2022-10-14T04:04:03.785Z,11.70
2022-10-14T04:06:31.214Z,11.95
2022-10-14T04:08:57.514Z,11.77
2022-10-14T04:11:23.908Z,11.73
2022-10-14T04:13:50.221Z,12.30
2022-10-14T04:16:16.762Z,11.23
2022-10-14T04:18:43.136Z,13.18
2022-10-14T04:21:11.774Z,12.50
2022-10-14T04:23:38.255Z,13.43
2022-10-14T04:26:05.672Z,13.45
2022-10-14T04:28:32.596Z,13.88
2022-10-14T04:30:59.093Z,14.15
2022-10-14T04:33:25.943Z,14.07
2022-10-14T04:35:57.099Z,14.52
2022-10-14T04:38:23.512Z,13.80
2022-10-14T04:40:49.795Z,13.05
2022-10-14T04:43:16.132Z,14.23
2022-10-14T04:45:42.480Z,13.85
2022-10-14T04:48:08.868Z,13.95
2022-10-14T04:50:35.230Z,13.60
2022-10-14T04:53:01.674Z,13.20
2022-10-14T04:55:27.990Z,12.65
2022-10-14T04:57:54.455Z,11.75
2022-10-14T05:00:20.912Z,11.55
2022-10-14T05:02:47.883Z,10.93
2022-10-14T05:05:14.934Z,10.98
2022-10-14T05:07:41.623Z,10.95
2022-10-14T05:10:10.262Z,10.25
2022-10-14T05:12:37.436Z,9.57
2022-10-14T05:15:05.331Z,10.27
2022-10-14T05:17:36.318Z,10.23
2022-10-14T05:20:02.641Z,10.38
2022-10-14T05:22:29.038Z,10.02
2022-10-14T05:24:55.354Z,9.20
2022-10-14T05:27:21.676Z,10.02
2022-10-14T05:29:48.958Z,10.02
2022-10-14T05:32:15.746Z,8.98
2022-10-14T05:34:42.123Z,9.55
2022-10-14T05:37:08.527Z,9.00
2022-10-14T05:39:35.004Z,9.13
2022-10-14T05:42:01.633Z,9.10
2022-10-14T05:44:27.974Z,9.20
2022-10-14T05:46:54.288Z,9.30
2022-10-14T05:49:20.657Z,10.30
2022-10-14T05:51:47.052Z,11.07
2022-10-14T05:54:13.512Z,12.10
2022-10-14T05:56:40.119Z,13.75
2022-10-14T05:59:06.492Z,12.88
2022-10-14T06:01:34.789Z,12.27
2022-10-14T06:04:01.190Z,13.15
2022-10-14T06:06:29.097Z,12.18
2022-10-14T06:08:56.460Z,12.65
2022-10-14T06:11:23.090Z,13.48
2022-10-14T06:13:49.647Z,13.05
2022-10-14T06:16:16.091Z,13.00
2022-10-14T06:18:42.445Z,12.75
2022-10-14T06:21:09.782Z,12.68
2022-10-14T06:23:36.097Z,11.82
2022-10-14T06:26:06.277Z,13.43
2022-10-14T06:28:32.709Z,12.88
2022-10-14T06:30:59.042Z,12.63
2022-10-14T06:33:25.476Z,12.98
2022-10-14T06:35:51.788Z,13.25
2022-10-14T06:38:18.285Z,11.77
2022-10-14T06:40:44.657Z,10.55
2022-10-14T06:43:11.032Z,10.23
2022-10-14T06:45:37.319Z,8.02
2022-10-14T06:48:04.892Z,7.30
2022-10-14T06:50:31.219Z,8.10
2022-10-14T06:52:57.609Z,7.68
2022-10-14T06:55:23.918Z,7.47
2022-10-14T06:57:50.212Z,8.25
2022-10-14T07:00:17.014Z,8.05
2022-10-14T07:02:44.565Z,8.43
2022-10-14T07:05:10.954Z,7.93
2022-10-14T07:07:37.263Z,8.32
2022-10-14T07:10:03.666Z,8.05
2022-10-14T07:12:30.131Z,7.72
2022-10-14T07:14:56.996Z,8.07
2022-10-14T07:17:23.819Z,7.50
2022-10-14T07:19:50.941Z,7.78
2022-10-14T07:22:17.700Z,8.45
2022-10-14T07:24:44.271Z,7.68
2022-10-14T07:27:11.184Z,8.27
2022-10-14T07:29:37.556Z,8.50
2022-10-14T07:32:03.948Z,7.38
2022-10-14T07:34:30.365Z,8.13
2022-10-14T07:36:56.660Z,7.53
2022-10-14T07:39:23.841Z,7.55
2022-10-14T07:41:50.145Z,7.78
2022-10-14T07:44:17.337Z,8.15
2022-10-14T07:46:45.249Z,7.43
2022-10-14T07:49:17.281Z,7.68
2022-10-14T07:51:43.928Z,8.60
2022-10-14T07:54:15.069Z,7.65
2022-10-14T07:56:42.953Z,7.57
2022-10-14T07:59:09.248Z,8.43
2022-10-14T08:01:35.671Z,8.80
2022-10-14T08:04:02.124Z,9.05
2022-10-14T08:06:28.436Z,8.52
2022-10-14T08:08:54.821Z,8.80
2022-10-14T08:11:22.870Z,8.75
2022-10-14T08:13:49.962Z,9.25
2022-10-14T08:16:17.763Z,9.05
2022-10-14T08:18:44.284Z,8.00
2022-10-14T08:21:10.621Z,8.88
2022-10-14T08:23:36.941Z,8.32
2022-10-14T08:26:03.299Z,8.43
2022-10-14T08:28:29.706Z,8.43
2022-10-14T08:30:56.316Z,8.23
2022-10-14T08:33:22.633Z,7.32
2022-10-14T08:35:53.104Z,6.75
2022-10-14T08:38:25.092Z,6.82
2022-10-14T08:41:10.345Z,6.47
2022-10-14T08:43:37.677Z,6.63
2022-10-14T08:46:11.224Z,6.80
2022-10-14T08:48:38.048Z,7.15
2022-10-14T08:51:15.474Z,6.22
2022-10-14T08:53:53.955Z,6.93
2022-10-14T08:56:20.670Z,6.10
2022-10-14T08:58:46.996Z,5.45
2022-10-14T09:01:24.960Z,5.55
2022-10-14T09:03:57.223Z,5.60
2022-10-14T09:06:27.927Z,5.18
2022-10-14T09:09:00.736Z,6.00
2022-10-14T09:11:32.040Z,6.82
2022-10-14T09:14:01.008Z,7.93
2022-10-14T09:16:29.636Z,7.65
2022-10-14T09:19:03.519Z,7.80
2022-10-14T09:21:53.237Z,8.43
2022-10-14T09:24:20.113Z,7.95
2022-10-14T09:26:52.622Z,8.35
2022-10-14T09:29:22.131Z,7.40
2022-10-14T09:31:48.662Z,7.57
2022-10-14T09:34:24.103Z,7.45
2022-10-14T09:39:17.541Z,7.32
2022-10-14T09:41:46.029Z,7.63
2022-10-14T09:44:13.308Z,6.70
2022-10-14T09:46:39.786Z,6.38
2022-10-14T09:49:13.281Z,6.47
2022-10-14T09:51:45.246Z,5.93
2022-10-14T09:54:21.576Z,5.70
2022-10-14T09:56:49.497Z,6.30
2022-10-14T09:59:17.354Z,5.63
2022-10-14T10:01:54.410Z,6.22
2022-10-14T10:04:25.343Z,6.50
2022-10-14T10:06:53.160Z,6.13
2022-10-14T10:09:20.119Z,6.32
2022-10-14T10:11:46.680Z,5.72
2022-10-14T10:14:16.403Z,5.38
2022-10-14T10:16:42.881Z,6.38
2022-10-14T10:19:31.246Z,6.53
2022-10-14T10:22:17.058Z,6.43
2022-10-14T10:24:45.087Z,6.18
2022-10-14T10:27:20.962Z,5.43
2022-10-14T10:29:47.488Z,5.32
2022-10-14T10:32:24.481Z,4.82
2022-10-14T10:34:56.872Z,4.22
2022-10-14T10:37:52.845Z,3.33
2022-10-14T10:40:30.052Z,4.45
2022-10-14T10:43:14.777Z,3.65
2022-10-14T10:45:44.214Z,3.30
2022-10-14T10:48:34.015Z,3.20
2022-10-14T10:51:05.320Z,2.50
2022-10-14T10:53:34.481Z,2.40
2022-10-14T10:56:09.622Z,2.75
2022-10-14T10:58:51.104Z,3.03
2022-10-14T11:01:17.519Z,2.80
2022-10-14T11:03:56.545Z,3.00
2022-10-14T11:06:42.834Z,2.72
2022-10-14T11:09:35.121Z,2.13
2022-10-14T11:12:23.354Z,2.28
2022-10-14T11:14:52.626Z,2.30
2022-10-14T11:17:37.708Z,2.13
2022-10-14T11:20:10.048Z,2.58
2022-10-14T11:22:55.250Z,2.33
2022-10-14T11:25:34.137Z,2.15
2022-10-14T11:28:14.603Z,2.25
2022-10-14T11:30:44.340Z,2.03
2022-10-14T11:33:24.204Z,1.80
2022-10-14T11:36:22.834Z,1.77
2022-10-14T11:38:52.089Z,1.63
2022-10-14T11:41:24.452Z,1.48
2022-10-14T11:44:01.567Z,1.63
2022-10-14T11:46:29.416Z,1.40
2022-10-14T11:48:58.121Z,1.30
2022-10-14T11:51:24.514Z,1.50
2022-10-14T11:53:51.989Z,1.20
2022-10-14T11:56:36.953Z,1.40
2022-10-14T11:59:42.014Z,1.60
2022-10-14T12:02:15.237Z,1.58
2022-10-14T12:04:42.446Z,1.88
2022-10-14T12:07:12.370Z,1.60
2022-10-14T12:09:43.505Z,1.80
2022-10-14T12:12:12.054Z,1.73
2022-10-14T12:14:40.717Z,1.80
2022-10-14T12:17:17.563Z,1.80
2022-10-14T12:19:45.283Z,1.95
2022-10-14T12:22:25.666Z,2.03
2022-10-14T12:24:53.788Z,1.70
2022-10-14T12:27:21.634Z,1.77
2022-10-14T12:29:49.899Z,1.80
2022-10-14T12:32:16.199Z,1.75
2022-10-14T12:34:43.179Z,1.65
2022-10-14T12:37:28.842Z,1.85
2022-10-14T12:39:57.768Z,1.70
2022-10-14T12:42:24.435Z,1.60
2022-10-14T12:44:56.108Z,1.63
2022-10-14T12:47:32.166Z,1.77
2022-10-14T12:50:02.514Z,1.52
2022-10-14T12:52:37.331Z,1.80
2022-10-14T12:55:29.963Z,1.73
2022-10-14T12:57:58.029Z,1.45
2022-10-14T13:00:24.381Z,1.63
2022-10-14T13:02:51.811Z,1.58
2022-10-14T13:05:27.375Z,1.40
2022-10-14T13:08:16.723Z,1.20
2022-10-14T13:10:48.334Z,1.10
2022-10-14T13:13:33.618Z,1.63
2022-10-14T13:16:00.090Z,1.37
2022-10-14T13:18:33.361Z,1.10
2022-10-14T13:20:59.766Z,1.35
2022-10-14T13:23:44.713Z,1.33
2022-10-14T13:26:15.948Z,1.30
2022-10-14T13:28:48.044Z,1.10
2022-10-14T13:31:17.339Z,1.40
2022-10-14T13:33:52.571Z,1.27
2022-10-14T13:36:22.067Z,1.10
2022-10-14T13:38:54.008Z,1.10
2022-10-14T13:41:29.852Z,1.00
2022-10-14T13:43:58.758Z,1.15
2022-10-14T13:46:28.154Z,1.23
2022-10-14T13:48:59.648Z,1.40
2022-10-14T13:51:36.563Z,1.38
2022-10-14T13:54:17.605Z,1.30
2022-10-14T13:56:44.270Z,1.48
2022-10-14T13:59:32.386Z,1.30
2022-10-14T14:02:10.813Z,1.50
2022-10-14T14:04:37.327Z,1.30
2022-10-14T14:07:35.133Z,1.52
2022-10-14T14:09:52.028Z,1.40
2022-10-14T14:12:20.435Z,1.35
2022-10-14T14:14:47.294Z,1.70
2022-10-14T14:17:23.539Z,1.65
2022-10-14T14:19:50.815Z,1.52
2022-10-14T14:22:17.277Z,1.45
2022-10-14T14:24:43.987Z,1.50
2022-10-14T14:27:24.686Z,1.60
2022-10-14T14:29:52.033Z,1.50
2022-10-14T14:32:19.790Z,1.55
2022-10-14T14:34:47.664Z,1.40
2022-10-14T14:37:40.112Z,1.70
2022-10-14T14:40:08.051Z,1.80
2022-10-14T14:42:39.929Z,1.73
2022-10-14T14:45:14.303Z,1.80
2022-10-14T14:47:41.754Z,1.95
2022-10-14T14:50:29.529Z,1.88
2022-10-14T14:55:42.456Z,1.90
2022-10-14T14:58:20.484Z,2.10
2022-10-14T15:00:47.190Z,2.00
2022-10-14T15:03:13.616Z,1.73
2022-10-14T15:05:39.969Z,1.90
2022-10-14T15:08:14.782Z,1.90
2022-10-14T15:10:46.086Z,1.87
2022-10-14T15:13:29.248Z,1.90
2022-10-14T15:15:55.674Z,2.03
2022-10-14T15:18:27.782Z,1.60
2022-10-14T15:21:13.880Z,1.83
2022-10-14T15:26:23.689Z,1.67
2022-10-14T15:29:03.344Z,1.70
2022-10-14T15:31:29.833Z,1.45
2022-10-14T15:33:56.185Z,1.80
2022-10-14T15:36:22.482Z,1.95
2022-10-14T15:38:49.939Z,1.90
2022-10-14T15:41:16.320Z,1.63
2022-10-14T15:43:42.767Z,1.90
2022-10-14T15:46:44.409Z,2.30
2022-10-14T15:49:20.282Z,1.70
2022-10-14T15:51:46.691Z,1.83
2022-10-14T15:54:13.068Z,2.83
2022-10-14T15:56:39.473Z,2.00
2022-10-14T15:59:06.002Z,2.00
2022-10-14T16:01:34.384Z,1.95
2022-10-14T16:04:01.401Z,1.92
2022-10-14T16:06:29.517Z,2.13
2022-10-14T16:08:56.432Z,2.22
2022-10-14T16:11:23.904Z,1.92
2022-10-14T16:13:50.212Z,2.15
2022-10-14T16:16:19.129Z,2.38
2022-10-14T16:18:45.441Z,2.53
2022-10-14T16:21:15.526Z,2.80
2022-10-14T16:23:43.404Z,2.45
2022-10-14T16:26:09.923Z,2.28
2022-10-14T16:28:36.434Z,2.22
2022-10-14T16:31:02.796Z,2.20
2022-10-14T16:33:29.184Z,2.33
2022-10-14T16:35:56.632Z,2.13
2022-10-14T16:38:24.180Z,2.97
2022-10-14T16:40:57.338Z,3.20
2022-10-14T16:43:23.920Z,4.25
2022-10-14T16:45:50.450Z,5.13
2022-10-14T16:48:20.185Z,11.13
2022-10-14T16:50:50.465Z,7.13
2022-10-14T16:53:35.292Z,8.75
2022-10-14T16:56:01.893Z,58.03
2022-10-14T16:58:28.922Z,19.70
2022-10-14T17:00:55.744Z,12.50
2022-10-14T17:03:22.091Z,8.15
2022-10-14T17:05:49.466Z,5.70
2022-10-14T17:08:15.829Z,8.18
2022-10-14T17:10:42.142Z,8.20
2022-10-14T17:13:08.443Z,7.18
2022-10-14T17:15:34.775Z,9.90
2022-10-14T17:18:01.091Z,18.20
2022-10-14T17:20:28.226Z,26.55
2022-10-14T17:22:55.047Z,13.88
2022-10-14T17:25:22.039Z,12.23
2022-10-14T17:27:49.248Z,10.10
2022-10-14T17:30:15.789Z,8.02
2022-10-14T17:32:42.093Z,8.25
2022-10-14T17:35:12.752Z,17.05
2022-10-14T17:37:42.489Z,14.00
2022-10-14T17:40:09.451Z,13.85
2022-10-14T17:42:35.750Z,14.70
2022-10-14T17:45:02.111Z,11.70
2022-10-14T17:47:28.910Z,9.35
2022-10-14T17:49:55.268Z,14.63
2022-10-14T17:52:21.573Z,11.98
2022-10-14T17:54:48.180Z,12.18
2022-10-14T17:57:14.565Z,24.75
2022-10-14T17:59:43.348Z,16.83
2022-10-14T18:02:16.474Z,11.13
2022-10-14T18:04:42.879Z,10.93
2022-10-14T18:07:09.248Z,7.20
2022-10-14T18:09:35.643Z,7.00
2022-10-14T18:12:10.222Z,7.05
2022-10-14T18:14:37.742Z,7.33
2022-10-14T18:17:05.195Z,6.35
2022-10-14T18:19:31.852Z,7.00
2022-10-14T18:21:58.223Z,6.55
2022-10-14T18:24:24.625Z,6.32
2022-10-14T18:26:51.504Z,6.28
2022-10-14T18:29:17.849Z,6.65
2022-10-14T18:31:44.443Z,6.50
2022-10-14T18:34:11.415Z,6.75
2022-10-14T18:36:37.978Z,7.20
2022-10-14T18:39:06.688Z,7.35
2022-10-14T18:41:33.507Z,8.48
2022-10-14T18:43:59.866Z,8.38
2022-10-14T18:46:30.457Z,8.07
2022-10-14T18:48:57.516Z,7.70
2022-10-14T18:51:25.719Z,7.95
2022-10-14T18:53:53.491Z,7.75
2022-10-14T18:56:21.512Z,7.93
2022-10-14T18:58:49.880Z,7.30
2022-10-14T19:01:16.812Z,7.90
2022-10-14T19:03:43.760Z,7.85
2022-10-14T19:06:12.055Z,7.75
2022-10-14T19:08:39.043Z,7.40
2022-10-14T19:11:06.557Z,7.70
2022-10-14T19:13:33.012Z,8.02
2022-10-14T19:16:06.743Z,7.68
2022-10-14T19:18:33.063Z,8.10
2022-10-14T19:21:09.763Z,8.25
2022-10-14T19:23:36.676Z,9.02
2022-10-14T19:26:11.352Z,9.77
2022-10-14T19:28:37.879Z,10.00
2022-10-14T19:31:14.952Z,14.15
2022-10-14T19:33:42.265Z,14.05
2022-10-14T19:36:08.951Z,10.98
2022-10-14T19:38:35.870Z,9.95
2022-10-14T19:41:03.095Z,10.25
2022-10-14T19:43:29.457Z,10.07
2022-10-14T19:45:55.902Z,10.85
2022-10-14T19:48:22.546Z,10.77
2022-10-14T19:50:48.878Z,9.32
2022-10-14T19:53:15.330Z,10.02
2022-10-14T19:55:41.628Z,10.18
2022-10-14T19:58:07.953Z,10.27
2022-10-14T20:00:34.983Z,9.90
2022-10-14T20:03:01.364Z,10.20
2022-10-14T20:05:34.219Z,10.25
2022-10-14T20:08:01.908Z,9.63
2022-10-14T20:10:28.661Z,9.35
2022-10-14T20:12:55.298Z,9.23
2022-10-14T20:15:21.683Z,9.77
2022-10-14T20:17:48.189Z,9.68
2022-10-14T20:20:14.572Z,9.38
2022-10-14T20:22:40.922Z,9.52
2022-10-14T20:25:07.423Z,9.65
2022-10-14T20:27:34.316Z,10.30
2022-10-14T20:30:00.716Z,10.13
2022-10-14T20:32:27.022Z,9.55
2022-10-14T20:34:54.410Z,8.82
2022-10-14T20:37:23.073Z,8.88
2022-10-14T20:39:53.857Z,9.10
2022-10-14T20:42:20.222Z,7.88
2022-10-14T20:44:46.614Z,8.23
2022-10-14T20:47:13.366Z,7.55
2022-10-14T20:49:39.674Z,9.02
2022-10-14T20:52:06.366Z,8.27
2022-10-14T20:54:32.702Z,8.95
2022-10-14T20:56:59.066Z,8.70
2022-10-14T20:59:25.531Z,8.55
2022-10-14T21:01:51.854Z,9.48
2022-10-14T21:04:18.172Z,9.30
2022-10-14T21:06:44.498Z,9.90
2022-10-14T21:09:10.916Z,9.88
2022-10-14T21:11:37.406Z,9.75
2022-10-14T21:14:03.902Z,11.40
2022-10-14T21:16:30.292Z,9.85
2022-10-14T21:18:58.326Z,9.95
2022-10-14T21:21:25.757Z,9.93
2022-10-14T21:23:52.507Z,10.57
2022-10-14T21:26:18.849Z,9.45
2022-10-14T21:28:45.237Z,10.07
2022-10-14T21:31:14.689Z,9.45
2022-10-14T21:33:43.716Z,9.95
2022-10-14T21:36:11.212Z,9.27
2022-10-14T21:38:38.146Z,9.85
2022-10-14T21:41:04.936Z,10.02
2022-10-14T21:43:32.581Z,9.80
2022-10-14T21:46:03.112Z,9.80
2022-10-14T21:48:29.577Z,8.88
2022-10-14T21:51:06.639Z,9.73
2022-10-14T21:53:33.440Z,9.13
2022-10-14T21:55:59.934Z,9.15
2022-10-14T21:58:26.862Z,8.85
2022-10-14T22:01:03.638Z,9.30
2022-10-14T22:03:30.206Z,8.02
2022-10-14T22:05:57.173Z,8.75
2022-10-14T22:08:24.020Z,8.23
2022-10-14T22:10:50.334Z,8.13
2022-10-14T22:13:16.940Z,8.48
2022-10-14T22:15:43.401Z,9.27
2022-10-14T22:18:10.060Z,9.02
2022-10-14T22:20:36.840Z,8.90
2022-10-14T22:23:03.248Z,9.50
2022-10-14T22:25:29.674Z,9.00
2022-10-14T22:27:55.999Z,9.00
2022-10-14T22:30:22.337Z,9.10
2022-10-14T22:32:48.652Z,8.93
2022-10-14T22:35:15.019Z,9.45
2022-10-14T22:37:41.694Z,9.75
2022-10-14T22:40:08.378Z,9.23
2022-10-14T22:42:36.842Z,9.25
2022-10-14T22:45:05.962Z,9.63
2022-10-14T22:47:32.360Z,9.35
2022-10-14T22:49:58.736Z,8.85
2022-10-14T22:52:25.347Z,9.00
2022-10-14T22:54:52.008Z,9.00
2022-10-14T22:57:18.565Z,8.85
2022-10-14T22:59:44.939Z,8.85
2022-10-14T23:02:11.292Z,8.27
2022-10-14T23:04:37.642Z,8.20
2022-10-14T23:07:06.895Z,7.90
2022-10-14T23:11:59.798Z,7.85
2022-10-14T23:14:27.452Z,6.90
2022-10-14T23:16:53.763Z,6.68
2022-10-14T23:19:20.153Z,7.38
2022-10-14T23:21:46.530Z,6.93
2022-10-14T23:24:12.954Z,6.28
2022-10-14T23:26:39.393Z,6.25
2022-10-14T23:29:08.086Z,6.60
2022-10-14T23:31:35.604Z,6.95
2022-10-14T23:34:03.079Z,6.07
2022-10-14T23:36:29.375Z,6.57
2022-10-14T23:38:55.781Z,6.28
2022-10-14T23:41:22.795Z,6.40
2022-10-14T23:43:49.887Z,6.13
2022-10-14T23:46:16.320Z,5.95
2022-10-14T23:48:42.729Z,5.80
2022-10-14T23:51:09.088Z,5.80
2022-10-14T23:53:35.818Z,6.20
2022-10-14T23:56:02.442Z,6.25
2022-10-14T23:58:29.773Z,5.88
